• Join FlightAware (Why Join?)
  • Login
  • US Flag 
01:41PM EDT


 

Airport Tracker/Info


-or-


 

Live Flight TrackerFlight Track Log ✈ GPD95 ✈ 14-Jul-2013 ✈ KMVY - KHPN

Flight Track Log - Related Links

Times and Time Zones

All times are in EDT time to prevent confusion due to time zone crossing. See the GPD95 flight status page for this flight to view local times or setup timezone preferences in your user account.

Time Position Orientation Groundspeed Altitude Reporting Facility
EDT Latitude Longitude Course Direction KTS MPH feet Rate Location/Type
04:05PM 41.3433 -70.8808 254° West 124 143 4,600  Level Boston Center
04:06PM 41.3419 -70.9250 268° West 116 133 5,100 540 Climbing Boston Center
04:07PM 41.3383 -70.9664 263° West 117 135 5,700 600 Climbing Boston Center
04:08PM 41.3367 -71.0081 267° West 119 137 6,400 360 Climbing Boston Center
04:09PM 41.3175 -70.9047 254° West  Level FlightAware Approximate
04:09PM 41.3331 -71.0550 264° West 129 148 6,500  Level Boston Center
04:10PM 41.3066 -70.9538 254° West  Level FlightAware Approximate
04:10PM 41.3297 -71.1078 265° West 148 170 6,500  Level Boston Center
04:11PM 41.3261 -71.1631 265° West 147 169 6,600  Climbing Boston Center
04:12PM 41.3206 -71.2211 263° West 148 170 6,500 -60 Descending Boston Center
04:13PM 41.3189 -71.2764 268° West 142 163 6,500  Level Boston Center
04:14PM 41.3111 -71.3292 259° West 144 166 6,500  Level Boston Center
04:15PM 41.3056 -71.3817 262° West 142 163 6,500  Level Boston Center
04:16PM 41.2997 -71.4289 261° West 144 166 6,500  Level Boston Center
04:17PM 41.2939 -71.4869 262° West 144 166 6,500  Level Boston Center
04:18PM 41.2881 -71.5367 261° West 146 168 6,500  Level Boston Center
04:19PM 41.2822 -71.5894 262° West 140 161 6,500  Level Boston Center
04:20PM 41.2764 -71.6419 262° West 142 163 6,500  Level Boston Center
04:21PM 41.2706 -71.7028 263° West 145 167 6,500  Level Boston Center
04:22PM 41.2647 -71.7581 262° West 149 171 6,500  Level Boston Center
04:23PM 41.2608 -71.8050 264° West 140 161 6,500  Level Boston Center
04:24PM 41.2528 -71.8547 258° West 145 167 6,500  Level Boston Center
04:25PM 41.2447 -71.9100 259° West 142 163 6,500  Level Boston Center
04:26PM 41.2386 -71.9625 261° West 146 168 6,500  Level Boston Center
04:27PM 41.2347 -72.0206 265° West 146 168 6,500  Level Boston Center
04:28PM 41.2264 -72.0731 258° West 148 170 6,500 -60 Level Boston Center
04:29PM 41.2225 -72.1283 265° West 147 169 6,400 -180 Descending Boston Center
04:30PM 41.2142 -72.1889 260° West 152 175 6,200 -240 Descending Boston Center
04:32PM 41.2000 -72.2667 256° West 158 182 5,800 -300 Descending New York TRACON
04:33PM 41.2000 -72.3333 270° West 158 182 5,500 -300 Descending New York TRACON
04:34PM 41.1833 -72.3833 246° West 160 184 5,300 -300 Descending New York TRACON
04:35PM 41.1833 -72.4500 270° West 161 185 5,000 -300 Descending New York TRACON
04:36PM 41.1667 -72.5000 246° West 159 183 4,800 -300 Descending New York TRACON
04:37PM 41.1500 -72.5500 246° West 158 182 4,500 -180 Descending New York TRACON
04:38PM 41.1333 -72.6000 246° West 151 174 4,500  Level New York TRACON
04:39PM 41.1333 -72.6667 270° West 148 170 4,500  Level New York TRACON
04:40PM 41.1167 -72.7167 246° West 148 170 4,500  Level New York TRACON
04:41PM 41.1000 -72.7667 246° West 147 169 4,500  Level New York TRACON
04:43PM 41.0833 -72.8667 258° West 148 170 4,500  Level New York TRACON
04:44PM 41.0667 -72.9167 246° West 149 171 4,500  Level New York TRACON
04:45PM 41.0667 -72.9667 270° West 150 173 4,500  Level New York TRACON
04:46PM 41.0500 -73.0167 246° West 149 171 4,500 -60 Level New York TRACON
04:47PM 41.0333 -73.0833 252° West 155 178 4,400 -300 Descending New York TRACON
04:48PM 41.0167 -73.1333 246° West 161 185 4,000 -420 Descending New York TRACON
04:49PM 41.0167 -73.1833 270° West 160 184 3,700 -420 Descending New York TRACON
04:50PM 41.0000 -73.2500 252° West 160 184 3,200 -420 Descending New York TRACON
04:51PM 41.0000 -73.3000 270° West 159 183 2,900 -360 Descending New York TRACON
04:52PM 41.0000 -73.3667 270° West 157 181 2,500 -240 Descending New York TRACON
04:53PM 41.0000 -73.4167 270° West 151 174 2,500 -180 Level New York TRACON
04:54PM 41.0000 -73.4833 270° West 159 183 2,200 -300 Descending New York TRACON
04:55PM 41.0333 -73.5000 339° North 168 193 2,000 -120 Descending New York TRACON
04:56PM 41.0667 -73.5333 323° Northwest 156 180 2,000  Level New York TRACON
04:57PM 41.0667 -73.5833 270° West 152 175 2,000 -180 Level New York TRACON
04:58PM 41.0667 -73.6500 270° West 153 176 1,700 -600 Descending New York TRACON
04:59PM 41.0667 -73.6833 270° West 102 117 800 -900 Descending New York TRACON
05:01PM 41.0667 -73.7000 288° West  Level FlightAware Approximate
05:08PM 41.0669 -73.7076 288° West  Level Estimated
05:09PM 41.0667 -73.7000 288° West  Level FlightAware Approximate